createdAt,value
2022-12-19T00:00:38.381Z,30.58
2022-12-19T00:01:38.501Z,30.58
2022-12-19T00:02:38.492Z,30.58
2022-12-19T00:03:38.400Z,30.58
2022-12-19T00:04:38.332Z,30.48
2022-12-19T00:05:38.338Z,30.58
2022-12-19T00:06:41.364Z,30.48
2022-12-19T00:07:38.311Z,30.48
2022-12-19T00:08:38.444Z,30.48
2022-12-19T00:09:38.286Z,30.48
2022-12-19T00:10:38.261Z,30.48
2022-12-19T00:11:38.298Z,30.48
2022-12-19T00:12:38.244Z,30.48
2022-12-19T00:13:41.052Z,30.48
2022-12-19T00:14:46.227Z,30.38
2022-12-19T00:15:38.211Z,30.38
2022-12-19T00:16:38.281Z,30.38
2022-12-19T00:17:38.193Z,30.48
2022-12-19T00:18:38.196Z,30.38
2022-12-19T00:19:38.171Z,30.38
2022-12-19T00:20:38.289Z,30.38
2022-12-19T00:21:38.152Z,30.38
2022-12-19T00:22:38.135Z,30.38
2022-12-19T00:23:38.131Z,30.38
2022-12-19T00:24:38.115Z,30.38
2022-12-19T00:25:38.782Z,30.38
2022-12-19T00:26:38.120Z,30.28
2022-12-19T00:27:38.095Z,30.28
2022-12-19T00:28:38.073Z,30.38
2022-12-19T00:29:38.067Z,30.38
2022-12-19T00:30:38.053Z,30.38
2022-12-19T00:31:38.107Z,30.38
2022-12-19T00:32:38.162Z,30.28
2022-12-19T00:33:38.025Z,30.38
2022-12-19T00:34:38.028Z,30.28
2022-12-19T00:35:38.008Z,30.38
2022-12-19T00:36:37.994Z,30.38
2022-12-19T00:37:38.924Z,30.28
2022-12-19T00:38:38.033Z,30.28
2022-12-19T00:39:37.961Z,30.38
2022-12-19T00:40:37.942Z,30.28
2022-12-19T00:41:41.848Z,30.28
2022-12-19T00:42:37.924Z,30.28
2022-12-19T00:43:37.922Z,30.28
2022-12-19T00:44:38.032Z,30.28
2022-12-19T00:45:37.947Z,30.28
2022-12-19T00:46:37.888Z,30.28
2022-12-19T00:47:37.880Z,30.18
2022-12-19T00:48:37.890Z,30.18
2022-12-19T00:49:37.857Z,30.28
2022-12-19T00:50:37.974Z,30.18
2022-12-19T00:51:37.875Z,30.18
2022-12-19T00:52:37.820Z,30.18
2022-12-19T00:53:37.816Z,30.18
2022-12-19T00:54:37.832Z,30.28
2022-12-19T00:55:37.798Z,30.18
2022-12-19T00:56:38.452Z,30.18
2022-12-19T00:57:37.777Z,30.18
2022-12-19T00:58:39.948Z,30.28
2022-12-19T00:59:37.754Z,30.28
2022-12-19T01:00:37.775Z,30.18
2022-12-19T01:01:37.867Z,30.18
2022-12-19T01:02:37.867Z,30.18
2022-12-19T01:03:37.720Z,30.08
2022-12-19T01:04:41.579Z,30.18
2022-12-19T01:05:37.695Z,30.08
2022-12-19T01:06:37.676Z,30.18
2022-12-19T01:07:37.667Z,30.08
2022-12-19T01:08:37.806Z,30.18
2022-12-19T01:09:37.648Z,30.08
2022-12-19T01:10:37.640Z,30.18
2022-12-19T01:11:37.627Z,30.08
2022-12-19T01:12:37.613Z,30.18
2022-12-19T01:13:37.604Z,30.18
2022-12-19T01:14:37.752Z,30.08
2022-12-19T01:15:37.607Z,30.08
2022-12-19T01:16:37.647Z,30.18
2022-12-19T01:17:44.585Z,30.08
2022-12-19T01:18:37.556Z,30.08
2022-12-19T01:19:43.343Z,30.08
2022-12-19T01:20:37.661Z,30.08
2022-12-19T01:21:37.524Z,30.08
2022-12-19T01:22:37.506Z,30.08
2022-12-19T01:23:37.497Z,30.08
2022-12-19T01:24:37.508Z,30.08
2022-12-19T01:25:37.478Z,30.08
2022-12-19T01:26:37.507Z,30.08
2022-12-19T01:27:37.458Z,30.08
2022-12-19T01:28:37.446Z,29.97
2022-12-19T01:29:45.826Z,30.08
2022-12-19T01:30:37.426Z,30.07
2022-12-19T01:31:37.494Z,29.98
2022-12-19T01:32:37.547Z,29.97
2022-12-19T01:33:37.396Z,29.98
2022-12-19T01:34:37.379Z,29.98
2022-12-19T01:35:37.380Z,29.98
2022-12-19T01:36:39.611Z,29.98
2022-12-19T01:37:37.351Z,29.98
2022-12-19T01:38:37.467Z,29.98
2022-12-19T01:39:37.329Z,29.98
2022-12-19T01:40:37.343Z,29.98
2022-12-19T01:41:37.421Z,29.98
2022-12-19T01:42:37.301Z,29.98
2022-12-19T01:43:37.285Z,29.98
2022-12-19T01:44:37.357Z,29.98
2022-12-19T01:45:43.601Z,29.88
2022-12-19T01:46:37.356Z,29.98
2022-12-19T01:47:37.281Z,29.88
2022-12-19T01:48:37.231Z,29.98
2022-12-19T01:49:37.229Z,29.98
2022-12-19T01:50:37.380Z,29.98
2022-12-19T01:51:37.202Z,29.98
2022-12-19T01:52:37.187Z,29.98
2022-12-19T01:53:48.483Z,29.98
2022-12-19T01:54:37.180Z,29.88
2022-12-19T01:55:37.164Z,29.98
2022-12-19T01:56:37.179Z,29.98
2022-12-19T01:57:37.110Z,29.88
2022-12-19T01:58:37.099Z,29.88
2022-12-19T01:59:37.088Z,29.98
2022-12-19T02:00:37.085Z,29.98
2022-12-19T02:01:40.023Z,29.88
2022-12-19T02:02:37.299Z,29.88
2022-12-19T02:03:37.053Z,29.88
2022-12-19T02:04:37.033Z,29.98
2022-12-19T02:05:37.032Z,29.98
2022-12-19T02:06:37.009Z,29.88
2022-12-19T02:07:37.016Z,29.88
2022-12-19T02:08:37.020Z,29.88
2022-12-19T02:09:36.985Z,29.88
2022-12-19T02:10:36.985Z,29.88
2022-12-19T02:11:36.963Z,29.88
2022-12-19T02:12:36.949Z,29.88
2022-12-19T02:13:36.943Z,29.78
2022-12-19T02:14:43.741Z,29.78
2022-12-19T02:15:36.930Z,29.78
2022-12-19T02:16:36.929Z,29.78
2022-12-19T02:17:36.950Z,29.78
2022-12-19T02:18:36.891Z,29.78
2022-12-19T02:19:36.914Z,29.78
2022-12-19T02:20:36.917Z,29.78
2022-12-19T02:21:36.864Z,29.78
2022-12-19T02:22:36.860Z,29.78
2022-12-19T02:23:36.845Z,29.78
2022-12-19T02:24:36.831Z,29.78
2022-12-19T02:25:36.830Z,29.78
2022-12-19T02:26:36.834Z,29.88
2022-12-19T02:27:40.155Z,29.78
2022-12-19T02:28:36.797Z,29.78
2022-12-19T02:29:36.800Z,29.78
2022-12-19T02:30:36.768Z,29.78
2022-12-19T02:31:36.876Z,29.78
2022-12-19T02:32:36.881Z,29.78
2022-12-19T02:33:36.754Z,29.78
2022-12-19T02:34:41.304Z,29.78
2022-12-19T02:35:36.733Z,29.78
2022-12-19T02:36:40.377Z,29.78
2022-12-19T02:37:36.720Z,29.78
2022-12-19T02:38:36.717Z,29.78
2022-12-19T02:39:36.680Z,29.78
2022-12-19T02:40:36.679Z,29.78
2022-12-19T02:41:36.659Z,29.78
2022-12-19T02:42:36.650Z,29.68
2022-12-19T02:43:36.653Z,29.68
2022-12-19T02:44:36.904Z,29.78
2022-12-19T02:45:36.695Z,29.68
2022-12-19T02:46:36.607Z,29.68
2022-12-19T02:47:36.605Z,29.78
2022-12-19T02:48:36.589Z,29.68
2022-12-19T02:49:36.590Z,29.68
2022-12-19T02:50:36.612Z,29.68
2022-12-19T02:51:36.562Z,29.68
2022-12-19T02:52:36.553Z,29.68
2022-12-19T02:53:36.542Z,29.68
2022-12-19T02:54:36.532Z,29.68
2022-12-19T02:55:36.524Z,29.68
2022-12-19T02:56:36.546Z,29.68
2022-12-19T02:57:36.500Z,29.68
2022-12-19T02:58:36.489Z,29.68
2022-12-19T02:59:36.487Z,29.68
2022-12-19T03:00:36.470Z,29.58
2022-12-19T03:01:36.640Z,29.58
2022-12-19T03:02:36.768Z,29.68
2022-12-19T03:03:36.519Z,29.68
2022-12-19T03:04:36.437Z,29.68
2022-12-19T03:05:36.424Z,29.68
2022-12-19T03:06:36.409Z,29.68
2022-12-19T03:07:36.415Z,29.68
2022-12-19T03:08:36.409Z,29.68
2022-12-19T03:09:36.381Z,29.68
2022-12-19T03:10:36.374Z,29.68
2022-12-19T03:11:36.359Z,29.68
2022-12-19T03:12:36.352Z,29.58
2022-12-19T03:13:36.344Z,29.68
2022-12-19T03:14:43.303Z,29.68
2022-12-19T03:15:36.334Z,29.68
2022-12-19T03:16:36.345Z,29.58
2022-12-19T03:17:36.293Z,29.58
2022-12-19T03:18:36.287Z,29.58
2022-12-19T03:19:36.277Z,29.58
2022-12-19T03:20:36.390Z,29.58
2022-12-19T03:21:36.261Z,29.58
2022-12-19T03:22:36.249Z,29.58
2022-12-19T03:23:36.239Z,29.58
2022-12-19T03:24:36.223Z,29.58
2022-12-19T03:25:36.248Z,29.58
2022-12-19T03:26:36.266Z,29.58
2022-12-19T03:27:36.237Z,29.58
2022-12-19T03:28:36.183Z,29.58
2022-12-19T03:29:36.180Z,29.58
2022-12-19T03:30:36.284Z,29.58
2022-12-19T03:31:36.153Z,29.58
2022-12-19T03:32:36.203Z,29.58
2022-12-19T03:33:36.139Z,29.58
2022-12-19T03:34:36.124Z,29.47
2022-12-19T03:35:36.116Z,29.47
2022-12-19T03:36:36.101Z,29.58
2022-12-19T03:37:36.142Z,29.47
2022-12-19T03:38:36.230Z,29.58
2022-12-19T03:39:36.084Z,29.58
2022-12-19T03:40:36.070Z,29.47
2022-12-19T03:41:36.057Z,29.58
2022-12-19T03:42:36.042Z,29.47
2022-12-19T03:43:36.033Z,29.47
2022-12-19T03:44:36.142Z,29.47
2022-12-19T03:45:36.014Z,29.47
2022-12-19T03:46:36.002Z,29.58
2022-12-19T03:47:36.003Z,29.58
2022-12-19T03:48:36.004Z,29.47
2022-12-19T03:49:35.971Z,29.58
2022-12-19T03:50:35.994Z,29.47
2022-12-19T03:51:35.952Z,29.47
2022-12-19T03:52:35.934Z,29.47
2022-12-19T03:53:35.946Z,29.47
2022-12-19T03:54:35.914Z,29.47
2022-12-19T03:55:35.916Z,29.47
2022-12-19T03:56:35.919Z,29.47
2022-12-19T03:57:35.900Z,29.47
2022-12-19T03:58:35.876Z,29.47
2022-12-19T03:59:35.870Z,29.47
2022-12-19T04:00:35.888Z,29.47
2022-12-19T04:01:36.000Z,29.47
2022-12-19T04:02:35.895Z,29.47
2022-12-19T04:03:35.856Z,29.47
2022-12-19T04:04:35.840Z,29.47
2022-12-19T04:05:35.802Z,29.47
2022-12-19T04:06:35.792Z,29.47
2022-12-19T04:07:35.782Z,29.47
2022-12-19T04:08:35.909Z,29.47
2022-12-19T04:09:35.763Z,29.47
2022-12-19T04:10:35.764Z,29.47
2022-12-19T04:11:35.747Z,29.47
2022-12-19T04:12:35.733Z,29.47
2022-12-19T04:13:35.717Z,29.47
2022-12-19T04:14:42.380Z,29.47
2022-12-19T04:15:35.737Z,29.47
2022-12-19T04:16:35.695Z,29.47
2022-12-19T04:17:35.683Z,29.47
2022-12-19T04:18:35.681Z,29.47
2022-12-19T04:19:41.114Z,29.47
2022-12-19T04:20:35.811Z,29.38
2022-12-19T04:21:35.646Z,29.47
2022-12-19T04:22:35.641Z,29.47
2022-12-19T04:23:35.624Z,29.47
2022-12-19T04:24:35.614Z,29.38
2022-12-19T04:25:35.598Z,29.38
2022-12-19T04:26:35.650Z,29.38
2022-12-19T04:27:35.574Z,29.38
2022-12-19T04:28:35.573Z,29.38
2022-12-19T04:29:35.562Z,29.47
2022-12-19T04:30:36.534Z,29.47
2022-12-19T04:31:35.636Z,29.38
2022-12-19T04:32:35.563Z,29.38
2022-12-19T04:33:35.527Z,29.38
2022-12-19T04:34:38.924Z,29.47
2022-12-19T04:35:35.551Z,29.38
2022-12-19T04:36:35.515Z,29.38
2022-12-19T04:37:35.478Z,29.38
2022-12-19T04:38:35.546Z,29.38
2022-12-19T04:39:35.475Z,29.47
2022-12-19T04:40:39.495Z,29.38
2022-12-19T04:41:35.447Z,29.47
2022-12-19T04:42:35.425Z,29.38
2022-12-19T04:43:35.410Z,29.38
2022-12-19T04:44:35.534Z,29.38
2022-12-19T04:45:35.415Z,29.38
2022-12-19T04:46:35.450Z,29.38
2022-12-19T04:47:35.381Z,29.38
2022-12-19T04:48:35.366Z,29.38
2022-12-19T04:49:35.395Z,29.38
2022-12-19T04:50:35.556Z,29.38
2022-12-19T04:51:35.346Z,29.38
2022-12-19T04:52:35.351Z,29.38
2022-12-19T04:53:35.502Z,29.47
2022-12-19T04:54:35.313Z,29.58
2022-12-19T04:55:35.302Z,29.47
2022-12-19T04:56:35.386Z,29.47
2022-12-19T04:57:35.263Z,29.47
2022-12-19T04:58:35.298Z,29.58
2022-12-19T04:59:35.237Z,29.47
2022-12-19T05:00:35.280Z,29.86
2022-12-19T05:01:35.379Z,29.78
2022-12-19T05:02:35.488Z,29.98
2022-12-19T05:03:35.316Z,29.98
2022-12-19T05:04:35.187Z,29.98
2022-12-19T05:05:35.169Z,30.08
2022-12-19T05:06:35.171Z,30.18
2022-12-19T05:07:35.194Z,30.18
2022-12-19T05:08:35.290Z,30.38
2022-12-19T05:09:35.131Z,30.08
2022-12-19T05:10:35.129Z,29.98
2022-12-19T05:11:35.112Z,30.28
2022-12-19T05:12:35.100Z,30.18
2022-12-19T05:13:35.094Z,30.27
2022-12-19T05:14:35.214Z,30.27
2022-12-19T05:15:35.073Z,30.27
2022-12-19T05:16:35.076Z,30.27
2022-12-19T05:17:35.060Z,30.36
2022-12-19T05:18:35.036Z,30.57
2022-12-19T05:19:35.018Z,30.57
2022-12-19T05:20:35.053Z,30.57
2022-12-19T05:21:35.016Z,30.67
2022-12-19T05:22:35.011Z,30.67
2022-12-19T05:23:34.987Z,30.77
2022-12-19T05:24:34.974Z,30.77
2022-12-19T05:25:34.965Z,30.77
2022-12-19T05:26:34.997Z,30.77
2022-12-19T05:27:34.946Z,30.77
2022-12-19T05:28:34.930Z,30.79
2022-12-19T05:29:34.945Z,30.77
2022-12-19T05:30:34.919Z,30.79
2022-12-19T05:31:34.942Z,30.77
2022-12-19T05:32:35.027Z,30.77
2022-12-19T05:33:34.890Z,30.77
2022-12-19T05:34:34.869Z,30.67
2022-12-19T05:35:34.848Z,30.77
2022-12-19T05:36:34.842Z,30.67
2022-12-19T05:37:34.849Z,30.77
2022-12-19T05:38:34.959Z,30.77
2022-12-19T05:39:34.820Z,30.77
2022-12-19T05:40:34.811Z,30.77
2022-12-19T05:41:34.792Z,30.67
2022-12-19T05:42:34.785Z,30.77
2022-12-19T05:43:34.766Z,30.77
2022-12-19T05:44:34.884Z,30.77
2022-12-19T05:45:34.746Z,30.87
2022-12-19T05:46:34.787Z,30.77
2022-12-19T05:47:34.723Z,30.77
2022-12-19T05:48:34.726Z,30.77
2022-12-19T05:49:34.700Z,30.77
2022-12-19T05:50:34.721Z,30.77
2022-12-19T05:51:34.876Z,30.77
2022-12-19T05:52:34.674Z,30.87
2022-12-19T05:53:34.663Z,30.77
2022-12-19T05:54:34.693Z,30.77
2022-12-19T05:55:34.667Z,30.77
2022-12-19T05:56:34.635Z,30.77
2022-12-19T05:57:34.561Z,30.77
2022-12-19T05:58:34.553Z,30.77
2022-12-19T05:59:34.598Z,30.77
2022-12-19T06:00:34.550Z,30.77
2022-12-19T06:01:34.601Z,30.77
2022-12-19T06:02:34.888Z,30.77
2022-12-19T06:03:34.559Z,30.77
2022-12-19T06:04:34.495Z,30.77
2022-12-19T06:05:34.487Z,30.77
2022-12-19T06:06:34.472Z,30.67
2022-12-19T06:07:34.459Z,30.77
2022-12-19T06:08:34.482Z,30.77
2022-12-19T06:09:34.438Z,30.77
2022-12-19T06:10:34.425Z,30.77
2022-12-19T06:11:34.421Z,30.77
2022-12-19T06:12:34.410Z,30.77
2022-12-19T06:13:34.474Z,30.77
2022-12-19T06:14:34.421Z,30.77
2022-12-19T06:15:34.365Z,30.87
2022-12-19T06:16:34.410Z,30.87
2022-12-19T06:17:34.353Z,30.87
2022-12-19T06:18:34.347Z,30.97
2022-12-19T06:19:34.362Z,30.97
2022-12-19T06:20:34.515Z,31.07
2022-12-19T06:21:34.311Z,31.17
2022-12-19T06:22:34.304Z,31.17
2022-12-19T06:23:34.310Z,31.17
2022-12-19T06:24:34.389Z,31.27
2022-12-19T06:25:34.275Z,31.27
2022-12-19T06:26:34.280Z,31.27
2022-12-19T06:27:34.270Z,31.27
2022-12-19T06:28:34.252Z,31.27
2022-12-19T06:29:34.273Z,31.37
2022-12-19T06:31:11.719Z,31.37
2022-12-19T06:31:34.545Z,31.27
2022-12-19T06:32:37.870Z,31.37
2022-12-19T06:33:34.186Z,31.37
2022-12-19T06:35:02.634Z,31.48
2022-12-19T06:35:34.160Z,31.57
2022-12-19T06:36:34.163Z,31.57
2022-12-19T06:37:35.961Z,31.57
2022-12-19T06:38:34.268Z,31.57
2022-12-19T06:39:34.115Z,31.68
2022-12-19T06:40:34.110Z,31.66
2022-12-19T06:41:34.152Z,31.57
2022-12-19T06:42:34.085Z,31.56
2022-12-19T06:43:34.072Z,31.56
2022-12-19T06:44:34.211Z,31.56
2022-12-19T06:45:34.077Z,31.46
2022-12-19T06:46:34.044Z,31.46
2022-12-19T06:47:34.026Z,31.37
2022-12-19T06:48:34.025Z,31.48
2022-12-19T06:49:34.012Z,31.37
2022-12-19T06:50:34.131Z,31.37
2022-12-19T06:51:34.020Z,31.37
2022-12-19T06:52:33.972Z,31.46
2022-12-19T06:53:33.993Z,31.37
2022-12-19T06:54:33.972Z,31.37
2022-12-19T06:55:33.947Z,31.37
2022-12-19T06:56:33.958Z,31.27
2022-12-19T06:57:33.953Z,31.27
2022-12-19T06:58:33.944Z,31.17
2022-12-19T06:59:33.905Z,31.17
2022-12-19T07:00:33.926Z,31.27
2022-12-19T07:01:34.095Z,31.27
2022-12-19T07:02:34.239Z,31.17
2022-12-19T07:03:33.931Z,31.27
2022-12-19T07:04:33.909Z,31.17
2022-12-19T07:05:33.908Z,31.17
2022-12-19T07:06:33.925Z,31.07
2022-12-19T07:07:33.932Z,31.17
2022-12-19T07:08:33.900Z,30.57
2022-12-19T07:09:33.888Z,30.77
2022-12-19T07:10:33.899Z,30.87
2022-12-19T07:11:33.783Z,30.87
2022-12-19T07:12:33.843Z,30.97
2022-12-19T07:13:33.813Z,31.07
2022-12-19T07:15:45.685Z,31.17
2022-12-19T07:16:46.719Z,31.07
2022-12-19T07:17:46.609Z,31.07
2022-12-19T07:18:46.542Z,31.17
2022-12-19T07:19:46.576Z,31.07
2022-12-19T07:20:46.625Z,31.17
2022-12-19T07:21:46.559Z,31.17
2022-12-19T07:22:46.554Z,31.27
2022-12-19T07:23:46.540Z,31.17
2022-12-19T07:24:46.535Z,31.17
2022-12-19T07:25:46.529Z,31.17
2022-12-19T07:26:46.553Z,31.27
2022-12-19T07:27:46.452Z,31.27
2022-12-19T07:28:46.442Z,31.27
2022-12-19T07:29:46.425Z,31.27
2022-12-19T07:30:46.410Z,31.17
2022-12-19T07:31:46.444Z,31.17
2022-12-19T07:32:46.531Z,31.17
2022-12-19T07:33:46.382Z,31.17
2022-12-19T07:34:46.374Z,31.17
2022-12-19T07:35:46.352Z,31.17
2022-12-19T07:36:46.363Z,31.17
2022-12-19T07:37:46.344Z,31.17
2022-12-19T07:38:46.369Z,31.07
2022-12-19T07:39:46.357Z,31.17
2022-12-19T07:40:46.310Z,31.07
2022-12-19T07:41:46.306Z,31.09
2022-12-19T07:42:46.292Z,31.19
2022-12-19T07:43:46.325Z,31.19
2022-12-19T07:44:46.446Z,31.19
2022-12-19T07:45:46.388Z,31.19
2022-12-19T07:46:46.280Z,31.19
2022-12-19T07:47:46.231Z,31.19
2022-12-19T07:48:46.257Z,31.19
2022-12-19T07:49:46.205Z,31.19
2022-12-19T07:50:46.345Z,31.19
2022-12-19T07:51:46.183Z,31.09
2022-12-19T07:52:46.192Z,31.09
2022-12-19T07:53:46.163Z,31.09
2022-12-19T07:54:46.165Z,31.09
2022-12-19T07:55:46.144Z,31.09
2022-12-19T07:56:46.166Z,31.09
2022-12-19T07:57:46.120Z,31.09
2022-12-19T07:58:46.112Z,30.99
2022-12-19T07:59:46.096Z,30.99
2022-12-19T08:00:46.194Z,30.99
2022-12-19T08:01:46.189Z,30.99
2022-12-19T08:02:46.197Z,30.99
2022-12-19T08:03:46.063Z,30.99
2022-12-19T08:04:46.054Z,30.99
2022-12-19T08:05:46.035Z,30.88
2022-12-19T08:06:46.067Z,30.88
2022-12-19T08:07:46.023Z,30.88
2022-12-19T08:08:46.176Z,30.88
2022-12-19T08:09:45.990Z,30.88
2022-12-19T08:10:45.996Z,30.88
2022-12-19T08:11:45.979Z,30.88
2022-12-19T08:12:45.970Z,30.79
2022-12-19T08:13:46.983Z,30.79
2022-12-19T08:14:45.968Z,30.79
2022-12-19T08:15:45.933Z,30.79
2022-12-19T08:17:18.786Z,30.79
2022-12-19T08:17:45.967Z,30.79
2022-12-19T08:18:45.903Z,30.79
2022-12-19T08:19:45.890Z,30.79
2022-12-19T08:20:46.011Z,30.68
2022-12-19T08:21:45.869Z,30.68
2022-12-19T08:22:45.879Z,30.68
2022-12-19T08:23:45.856Z,30.68
2022-12-19T08:24:45.860Z,30.68
2022-12-19T08:25:45.822Z,30.58
2022-12-19T08:26:47.763Z,30.58
2022-12-19T08:27:45.808Z,30.58
2022-12-19T08:28:45.804Z,30.58
2022-12-19T08:29:45.790Z,30.57
2022-12-19T08:30:45.804Z,30.57
2022-12-19T08:31:45.771Z,30.57
2022-12-19T08:32:45.791Z,30.58
2022-12-19T08:33:45.742Z,30.57
2022-12-19T08:34:45.737Z,30.48
2022-12-19T08:35:45.716Z,30.47
2022-12-19T08:36:45.716Z,30.47
2022-12-19T08:37:45.695Z,30.47
2022-12-19T08:38:45.826Z,30.47
2022-12-19T08:39:45.676Z,30.47
2022-12-19T08:40:47.562Z,30.47
2022-12-19T08:41:45.684Z,30.47
2022-12-19T08:42:45.667Z,30.47
2022-12-19T08:43:45.649Z,30.36
2022-12-19T08:44:45.676Z,30.36
2022-12-19T08:45:45.692Z,30.36
2022-12-19T08:46:50.076Z,30.36
2022-12-19T08:47:45.603Z,30.36
2022-12-19T08:48:45.583Z,30.36
2022-12-19T08:49:45.574Z,30.36
2022-12-19T08:50:45.604Z,30.36
2022-12-19T08:51:45.556Z,30.36
2022-12-19T08:52:45.558Z,30.27
2022-12-19T08:53:45.526Z,30.27
2022-12-19T08:54:45.523Z,30.27
2022-12-19T08:55:45.514Z,30.27
2022-12-19T08:56:46.410Z,30.27
2022-12-19T08:57:45.490Z,30.27
2022-12-19T08:58:45.493Z,30.27
2022-12-19T08:59:45.501Z,30.27
2022-12-19T09:00:52.077Z,30.27
2022-12-19T09:01:45.634Z,30.27
2022-12-19T09:02:45.737Z,30.16
2022-12-19T09:04:29.862Z,30.27
2022-12-19T09:06:03.859Z,30.16
2022-12-19T09:06:18.661Z,30.16
2022-12-19T09:07:05.661Z,30.16
2022-12-19T09:08:05.773Z,30.16
2022-12-19T09:09:05.641Z,30.16
2022-12-19T09:10:05.616Z,30.16
2022-12-19T09:11:05.625Z,30.16
2022-12-19T09:12:05.641Z,30.16
2022-12-19T09:13:05.606Z,30.16
2022-12-19T09:14:05.711Z,30.07
2022-12-19T09:15:05.580Z,30.16
2022-12-19T09:16:05.548Z,30.07
2022-12-19T09:17:05.599Z,30.07
2022-12-19T09:18:05.533Z,30.07
2022-12-19T09:19:05.524Z,30.07
2022-12-19T09:20:05.659Z,30.07
2022-12-19T09:21:07.884Z,30.07
2022-12-19T09:22:05.493Z,30.07
2022-12-19T09:23:05.488Z,30.07
2022-12-19T09:24:07.868Z,30.07
2022-12-19T09:25:05.460Z,29.97
2022-12-19T09:26:05.502Z,30.07
2022-12-19T09:27:05.441Z,30.07
2022-12-19T09:29:17.486Z,29.97
2022-12-19T09:30:05.414Z,29.97
2022-12-19T09:31:05.455Z,29.97
2022-12-19T09:32:05.507Z,29.97
2022-12-19T09:33:05.378Z,29.97
2022-12-19T09:34:05.378Z,29.97
2022-12-19T09:35:05.358Z,29.86
2022-12-19T09:36:05.344Z,29.97
2022-12-19T09:37:05.339Z,29.97
2022-12-19T09:38:05.453Z,29.97
2022-12-19T09:39:05.314Z,29.97
2022-12-19T09:40:05.299Z,29.86
2022-12-19T09:41:05.288Z,29.86
2022-12-19T09:42:05.290Z,29.86
2022-12-19T09:43:05.286Z,29.86
2022-12-19T09:44:05.398Z,29.86
2022-12-19T09:45:05.256Z,29.86
2022-12-19T09:46:05.261Z,29.86
2022-12-19T09:47:05.253Z,29.86
2022-12-19T09:48:05.751Z,29.86
2022-12-19T09:49:05.242Z,29.86
2022-12-19T09:50:05.328Z,29.86
2022-12-19T09:51:09.287Z,29.86
2022-12-19T09:52:05.179Z,29.86
2022-12-19T09:53:05.166Z,29.97
2022-12-19T09:54:05.174Z,29.86
2022-12-19T09:55:05.140Z,29.86
2022-12-19T09:56:05.301Z,29.86
2022-12-19T09:57:05.127Z,29.86
2022-12-19T09:58:06.016Z,29.86
2022-12-19T09:59:05.107Z,29.86
2022-12-19T10:00:05.116Z,29.86
2022-12-19T10:01:05.089Z,29.86
2022-12-19T10:02:05.328Z,29.86
2022-12-19T10:03:05.352Z,29.86
2022-12-19T10:04:05.093Z,29.86
2022-12-19T10:05:18.477Z,29.86
2022-12-19T10:07:15.825Z,29.86
2022-12-19T10:08:01.766Z,29.86
2022-12-19T10:08:12.005Z,29.86
2022-12-19T10:10:12.440Z,29.86
2022-12-19T10:12:51.102Z,29.86
2022-12-19T10:12:59.606Z,29.86
2022-12-19T10:13:51.800Z,29.86
2022-12-19T10:15:00.026Z,29.86
2022-12-19T10:15:56.171Z,29.86
2022-12-19T10:17:22.093Z,29.86
2022-12-19T10:17:51.883Z,29.86
2022-12-19T10:18:56.500Z,29.86
2022-12-19T10:19:51.716Z,29.86
2022-12-19T10:20:51.711Z,29.86
2022-12-19T10:22:16.987Z,29.86
2022-12-19T10:22:51.664Z,29.86
2022-12-19T10:23:51.794Z,29.86
2022-12-19T10:24:59.547Z,29.86
2022-12-19T10:25:51.649Z,29.86
2022-12-19T10:26:51.649Z,29.86
2022-12-19T10:27:59.276Z,29.86
2022-12-19T10:28:51.607Z,29.86
2022-12-19T10:29:51.708Z,29.86
2022-12-19T10:30:51.623Z,29.86
2022-12-19T10:31:51.993Z,29.86
2022-12-19T10:32:51.560Z,29.86
2022-12-19T10:33:51.558Z,29.86
2022-12-19T10:34:51.615Z,29.86
2022-12-19T10:35:51.645Z,29.86
2022-12-19T10:37:51.513Z,29.86
2022-12-19T10:38:52.000Z,29.86
2022-12-19T10:39:51.516Z,29.86
2022-12-19T10:40:51.475Z,29.86
2022-12-19T10:41:51.626Z,29.86
2022-12-19T10:42:51.441Z,29.86
2022-12-19T10:43:51.460Z,29.86
2022-12-19T10:44:51.420Z,29.86
2022-12-19T10:45:51.412Z,29.86
2022-12-19T10:46:51.493Z,29.77
2022-12-19T10:47:51.520Z,29.86
2022-12-19T10:48:51.387Z,29.86
2022-12-19T10:49:51.383Z,29.86
2022-12-19T10:50:51.371Z,29.86
2022-12-19T10:51:51.352Z,29.86
2022-12-19T10:52:51.337Z,29.86
2022-12-19T10:53:51.371Z,29.88
2022-12-19T10:54:51.343Z,29.86
2022-12-19T10:55:51.327Z,29.88
2022-12-19T10:56:51.289Z,29.88
2022-12-19T10:57:51.286Z,29.88
2022-12-19T10:58:51.270Z,29.86
2022-12-19T10:59:51.413Z,29.88
2022-12-19T11:00:51.254Z,29.88
2022-12-19T11:02:00.231Z,29.86
2022-12-19T11:02:51.437Z,29.88
2022-12-19T11:03:51.263Z,29.86
2022-12-19T11:04:51.236Z,29.86
2022-12-19T11:05:57.656Z,29.77
2022-12-19T11:06:51.232Z,29.77
2022-12-19T11:07:51.181Z,29.88
2022-12-19T11:08:51.183Z,29.88
2022-12-19T11:10:38.496Z,29.78
2022-12-19T11:16:48.526Z,29.78
2022-12-19T11:21:10.553Z,29.88
2022-12-19T11:31:51.067Z,29.78
2022-12-19T11:32:49.873Z,29.78
2022-12-19T11:33:36.468Z,29.78
2022-12-19T11:34:36.350Z,29.78
2022-12-19T11:35:37.526Z,29.78
2022-12-19T11:36:36.310Z,29.78
2022-12-19T11:37:36.312Z,29.78
2022-12-19T11:38:36.286Z,29.78
2022-12-19T11:39:36.300Z,29.78
2022-12-19T11:40:36.279Z,29.78
2022-12-19T11:41:36.403Z,29.78
2022-12-19T11:42:36.256Z,29.78
2022-12-19T11:43:45.487Z,29.78
2022-12-19T11:44:36.244Z,29.78
2022-12-19T11:45:36.220Z,29.78
2022-12-19T11:46:36.211Z,29.78
2022-12-19T11:47:36.358Z,29.78
2022-12-19T11:48:36.190Z,29.68
2022-12-19T11:49:36.189Z,29.78
2022-12-19T11:50:36.169Z,29.68
2022-12-19T11:51:36.154Z,29.66
2022-12-19T11:53:36.274Z,29.66
2022-12-19T11:54:36.124Z,29.66
2022-12-19T11:55:36.132Z,29.66
2022-12-19T11:56:36.114Z,29.66
2022-12-19T11:57:36.104Z,29.66
2022-12-19T11:58:36.084Z,29.66
2022-12-19T11:59:36.205Z,29.68
2022-12-19T12:00:36.059Z,29.66
2022-12-19T12:01:36.072Z,29.66
2022-12-19T12:02:36.040Z,29.66
2022-12-19T12:03:36.062Z,29.66
2022-12-19T12:04:36.061Z,29.66
2022-12-19T12:05:36.145Z,29.66
2022-12-19T12:06:36.041Z,29.66
2022-12-19T12:08:40.393Z,29.57
2022-12-19T12:21:17.157Z,29.66
2022-12-19T12:27:50.099Z,29.66
2022-12-19T12:35:34.977Z,30.27
2022-12-19T12:38:21.408Z,30.47
2022-12-19T12:39:04.184Z,30.47
2022-12-19T12:40:03.993Z,30.36
2022-12-19T12:41:03.978Z,30.47
2022-12-19T12:42:04.108Z,30.36
2022-12-19T12:43:03.957Z,30.36
2022-12-19T12:44:03.943Z,30.36
2022-12-19T12:45:03.937Z,31.07
2022-12-19T12:46:04.005Z,30.97
2022-12-19T12:47:03.912Z,30.77
2022-12-19T12:48:04.023Z,30.79
2022-12-19T12:49:03.899Z,31.19
2022-12-19T12:50:03.886Z,31.09
2022-12-19T12:51:03.895Z,30.99
2022-12-19T12:52:03.862Z,31.09
2022-12-19T12:53:03.837Z,31.07
2022-12-19T12:54:03.968Z,30.99
2022-12-19T12:55:03.830Z,31.09
2022-12-19T12:56:04.888Z,30.99
2022-12-19T12:57:03.824Z,30.99
2022-12-19T12:58:04.690Z,31.07
2022-12-19T12:59:03.787Z,30.97
2022-12-19T13:00:03.806Z,30.97
2022-12-19T13:01:03.834Z,30.97
2022-12-19T13:02:03.953Z,30.97
2022-12-19T13:03:03.890Z,30.97
2022-12-19T13:04:03.729Z,30.97
2022-12-19T13:05:03.716Z,30.97
2022-12-19T13:06:04.011Z,30.97
2022-12-19T13:07:03.693Z,30.97
2022-12-19T13:08:03.704Z,30.97
2022-12-19T13:09:03.685Z,31.07
2022-12-19T13:10:03.652Z,30.97
2022-12-19T13:11:03.651Z,30.97
2022-12-19T13:12:03.778Z,31.07
2022-12-19T13:13:05.176Z,30.97
2022-12-19T13:14:03.634Z,30.97
2022-12-19T13:15:03.633Z,31.07
2022-12-19T13:16:03.645Z,31.07
2022-12-19T13:17:03.774Z,31.07
2022-12-19T13:18:03.724Z,31.07
2022-12-19T13:19:03.623Z,31.07
2022-12-19T13:20:03.586Z,31.07
2022-12-19T13:21:03.558Z,31.07
2022-12-19T13:22:03.548Z,31.07
2022-12-19T13:23:03.525Z,31.17
2022-12-19T13:24:03.699Z,31.17
2022-12-19T13:25:03.501Z,31.17
2022-12-19T13:26:03.523Z,31.17
2022-12-19T13:27:03.512Z,31.27
2022-12-19T13:28:03.472Z,31.27
2022-12-19T13:29:03.481Z,31.27
2022-12-19T13:30:03.615Z,31.17
2022-12-19T13:31:20.452Z,31.17
2022-12-19T13:32:03.515Z,31.27
2022-12-19T13:33:03.417Z,31.27
2022-12-19T13:34:03.401Z,31.27
2022-12-19T13:35:21.340Z,31.27
2022-12-19T13:39:52.444Z,31.27
2022-12-19T13:40:12.485Z,31.37
2022-12-19T13:40:20.879Z,31.48
2022-12-19T13:41:17.849Z,31.48
2022-12-19T13:42:17.830Z,31.48
2022-12-19T13:43:17.808Z,31.48
2022-12-19T13:44:17.760Z,31.48
2022-12-19T13:45:17.798Z,31.48
2022-12-19T13:46:17.798Z,31.48